Aeroporto :
LOGIN :

Iscrizione | Disclaimer

   EN    FR    IT 

 










Sommario :    VFR   VFR Marginale   IFR   IFR Intensivo   IFR Molto Intensivo
Visibilità : 
Base nubi : 
>= 8 km
>= 3000ft
5 / 8 km
1000 / 3000 ft
1500m / 5 km
500 / 1000 ft
800 / 1500m
200 / 500 ft
< 800m
< 200 ft
Simboli :   Temporali  Nebbia  Neve Forte  Precipitazioni Forti  Vento > 20 kt
SIGMETs :   Varie  Temporali  Ghiacco  Turbolenza  Onda orograficha  Ceneri Vulcaniche






- Altitudine del aeroporto : 49 ft
- Codice IATA : GLZ


EHGR - Gilze-Rijen Airbase

ULTIMO METAR :
  • 290540Z AUTO 22009KT 180V250 5000 -RA FEW006 SCT011 BKN013 15/14 Q1009 GRN

METARs OBSOLETI :
  • 290525Z AUTO 22008KT 170V250 9999 FEW009 SCT011 BKN014 15/14 Q1009 GRN
  • 290455Z AUTO 21008KT 180V250 9999 FEW011 SCT013 BKN015 15/14 Q1009 REDZ GRN
  • 290429Z AUTO 21009KT 170V260 5000 DZ FEW009 SCT011 BKN014 15/14 Q1009 GRN
  • 290355Z AUTO 21008KT 190V250 9999 FEW006 SCT008 BKN010 15/14 Q1009 GRN
  • 290343Z AUTO 21008KT 180V250 9999 FEW009 BKN015 OVC020 15/14 Q1009 WHT
  • 290325Z AUTO 21008KT 150V250 9999 FEW007 BKN013 OVC015 15/14 Q1009 GRN
  • 290304Z AUTO 21009KT 170V250 6000 BR FEW006 SCT010 BKN012 15/14 Q1009 GRN
  • 290255Z AUTO 21009KT 160V260 8000 -DZ FEW006 SCT011 BKN020 15/14 Q1009 REDZ GRN
  • 290244Z AUTO 21009KT 180V250 4200 +DZRA FEW005 SCT006 BKN009 15/14 Q1009 YLO
  • 290225Z AUTO 21009KT 180V260 3300 +DZRA FEW005 SCT009 BKN010 FEW015CB 15/14 Q1009 RERA REDZ YLO
  • 290208Z AUTO 20009KT 170V250 8000 SHRA FEW004 SCT006 BKN009 FEW015CB 15/14 Q1009 YLO
  • 290155Z AUTO 21008KT 180V250 3400 SHRA +DZ FEW004 SCT006 BKN014 FEW015CB 15/14 Q1010 YLO
  • 290142Z AUTO 21008KT 170V270 4100 DZ BKN019 BKN022 OVC041 15/14 Q1010 GRN
  • 290134Z AUTO 21008KT 170V270 4500 DZ FEW009 BKN021 BKN034 15/14 Q1010 GRN
  • 290103Z AUTO 24010KT 210V270 3600 +DZ FEW007 SCT018 BKN027 14/14 Q1010 YLO
  • 290042Z AUTO 22006KT 180V270 3900 RA FEW003 BKN012 OVC014 14/14 Q1011 GRN

TAF COR TAF EHGR
Valido dal 29 a 05 ore il 29 a 17 ore UTC


290446Z 2905/2917 22010KT 9999 FEW008 BKN012
TEMPO 2905/2906 3000 RA SHRA FEW006 SCT008 BKN012 SCT020CB
BECMG 2906/2908 FEW015 SCT020
TEMPO 2908/2917 26015G25KT 4500 SHRA SCT015 SCT025CB
BECMG 2915/2917 27008KT



MetMap, La meteo Aeronautica in un colpo d'occhio ! - Copyright ORBIFLY Dicembre 2007 - Disclaimer

ORBIFLY MET'MAP TEAM :

Programmazione e sviluppo : Alexandra Zaïnal
Concezione : Baudouin d'Aumeries
Supporto tecnico e logistico : Manuel Goepfert
Aiuto : Marc-Olivier Méhu
Aiuto per la traduzione : Arnaldo La Scala




FONTI E CREDITI :

   NOAA